Brevator, Minnesota
Current Conditions -  °F | °C
As of 10:55 PM on Sunday 21 Dec 2014 (Local Time) from KDLH Reporting Station
Haze Haze  
Wind Chill: 27°   Ceiling: 200
Heat Index: 34°   Visibility: 1mi
Dew Point: 32°   Wind: 8mph
Humidity: 92%   Direction: 140°SE
Pressure: 29.7"   Gusts: NA
Location:  46.8859°N, 92.4258°W
Report Text: KDLH 220455Z 14007KT 1SM R09/P6000FT BR OVC002 01/00 A2970 RMK AO2 TWR VIS 2 SLP077 T00110000
Loading
Personal Weather Stations






























Interactive Weather Map New forecast layout! Learn more

10-Day Weather Forecast

Advertisements
Track Severe Weather on mobile